Data for 02/09/2009

Time Sea-Level Adjusted Pressure Absolute Pressure Temperature Relative Humidity Dew Point   
(mb) (inHg) (mb) (inHg) (C) (F) (%) (C) (F)
00:05 1002 29.59 831 24.54 -1.9 28.5 73 -6.1 21
00:10 1002 29.59 831 24.54 -1.9 28.6 73 -6.1 21
00:15 1002 29.59 831 24.54 -1.7 28.9 71 -6.3 20.7
00:20 1002 29.59 831 24.54 -1.6 29.1 71 -6.3 20.7
00:25 1002 29.59 831 24.54 -1.6 29.1 70 -6.4 20.5
00:30 1002 29.59 831 24.54 -1.5 29.3 71 -6.1 21.1
00:35 1002 29.59 831 24.54 -1.6 29.1 72 -6.1 21
00:40 1002 29.59 831 24.54 -2 28.4 74 -6.1 21.1
00:45 1002 29.59 831 24.54 -2 28.3 73 -6.3 20.6
00:50 1002 29.59 831 24.54 -1.9 28.6 72 -6.2 20.8
00:55 1002 29.59 831 24.54 -1.7 28.9 72 -6.1 21.1
01:00 1002 29.59 831 24.54 -1.8 28.9 72 -6.1 20.9
01:05 1001 29.56 831 24.54 -1.6 29.1 70 -6.4 20.5
01:10 1001 29.56 831 24.54 -1.3 29.6 69 -6.3 20.7
01:15 1001 29.56 830 24.51 -1.3 29.6 68 -6.4 20.4
01:20 1001 29.56 830 24.51 -1.3 29.6 69 -6.3 20.7
01:25 1001 29.56 830 24.51 -1.5 29.3 70 -6.3 20.6
01:30 1001 29.56 830 24.51 -1.7 29 71 -6.4 20.6
01:35 1001 29.56 830 24.51 -1.9 28.6 72 -6.3 20.6
01:40 1001 29.56 830 24.51 -1.9 28.5 71 -6.6 20.2
01:45 1001 29.56 830 24.51 -2.3 27.9 73 -6.5 20.3
01:50 1001 29.56 830 24.51 -2.4 27.7 72 -6.8 19.7
01:55 1001 29.56 830 24.51 -2.3 27.9 71 -6.8 19.7
02:00 1001 29.56 830 24.51 -2 28.3 70 -6.8 19.7
02:05 1001 29.56 830 24.51 -2 28.4 70 -6.7 19.9
02:10 1001 29.56 831 24.54 -2 28.4 70 -6.8 19.8
02:15 1001 29.56 831 24.54 -1.9 28.5 70 -6.8 19.8
02:20 1001 29.56 831 24.54 -1.7 29 68 -6.9 19.7
02:25 1001 29.56 831 24.54 -1.5 29.3 68 -6.7 19.9
02:30 1001 29.56 831 24.54 -1.7 29 69 -6.6 20.1
02:35 1001 29.56 831 24.54 -2 28.4 69 -6.8 19.7
02:40 1001 29.56 830 24.51 -2.2 28.1 70 -6.9 19.5
02:45 1001 29.56 830 24.51 -2.2 28 70 -7 19.4
02:50 1001 29.56 830 24.51 -2.4 27.8 71 -7 19.4
02:55 1001 29.56 830 24.51 -2.4 27.7 70 -7.2 19.1
03:00 1001 29.56 830 24.51 -2.7 27.2 71 -7.2 19
03:05 1001 29.56 830 24.51 -3.1 26.5 73 -7.3 18.8
03:10 1001 29.56 830 24.51 -2.9 26.8 71 -7.4 18.7
03:15 1001 29.56 830 24.51 -2.8 26.9 71 -7.4 18.6
03:20 1001 29.56 830 24.51 -2.7 27.1 70 -7.4 18.7
03:25 1001 29.56 830 24.51 -2.4 27.6 69 -7.4 18.7
03:30 1001 29.56 830 24.51 -2.2 28.1 68 -7.4 18.7
03:35 1001 29.56 830 24.51 -2.2 28.1 68 -7.3 18.8
03:40 1001 29.56 830 24.51 -2.1 28.3 67 -7.4 18.7
03:45 1001 29.56 830 24.51 -1.5 29.3 64 -7.4 18.7
03:50 1001 29.56 830 24.51 -1.2 29.9 63 -7.3 18.9
03:55 1001 29.56 830 24.51 -1.1 29.9 63 -7.2 19
04:00 1001 29.56 830 24.51 -1.1 30 68 -6.3 20.7
04:05 1001 29.56 830 24.51 -1.9 28.7 69 -6.7 19.9
04:10 1001 29.56 830 24.51 -2.3 27.9 72 -6.7 19.9
04:15 1001 29.56 830 24.51 -2.7 27.1 73 -6.9 19.6
04:20 1001 29.56 830 24.51 -2.7 27.1 73 -6.9 19.5
04:25 1001 29.56 830 24.51 -2.7 27.1 73 -7 19.4
04:30 1001 29.56 830 24.51 -2.1 28.2 71 -6.7 20
04:35 1001 29.56 830 24.51 -1.3 29.6 67 -6.8 19.8
04:40 1001 29.56 830 24.51 -1.3 29.7 67 -6.6 20.1
04:45 1001 29.56 830 24.51 -1.4 29.5 68 -6.5 20.3
04:50 1001 29.56 830 24.51 -1.6 29.2 68 -6.7 20
04:55 1001 29.56 830 24.51 -1.4 29.5 67 -6.7 20
05:00 1001 29.56 830 24.51 -1.5 29.3 69 -6.4 20.5
05:05 1001 29.56 830 24.51 -2 28.3 71 -6.6 20.2
05:10 1001 29.56 830 24.51 -2.6 27.3 74 -6.7 20
05:15 1001 29.56 830 24.51 -2.7 27.1 74 -6.8 19.8
05:20 1001 29.56 830 24.51 -2.8 27 72 -7.2 19.1
05:25 1001 29.56 830 24.51 -2.5 27.5 71 -7.1 19.3
05:30 1001 29.56 830 24.51 -2.3 27.8 71 -6.9 19.6
05:35 1001 29.56 830 24.51 -2.6 27.3 72 -6.9 19.6
05:40 1001 29.56 831 24.54 -2.8 26.9 73 -7 19.3
05:45 1001 29.56 831 24.54 -2.6 27.4 71 -7.1 19.1
05:50 1001 29.56 831 24.54 -2.3 27.8 70 -7.1 19.3
05:55 1001 29.56 831 24.54 -2.2 28.1 69 -7.1 19.3
06:00 1001 29.56 831 24.54 -2 28.4 70 -6.7 19.9
06:05 1001 29.56 831 24.54 -2 28.5 70 -6.7 19.9
06:10 1001 29.56 831 24.54 -2.3 27.9 72 -6.6 20.2
06:15 1001 29.56 830 24.51 -2.7 27.2 75 -6.6 20.2
06:20 1001 29.56 830 24.51 -3 26.6 75 -6.8 19.7
06:25 1001 29.56 830 24.51 -2.8 26.9 74 -6.8 19.7
06:30 1001 29.56 830 24.51 -2.5 27.5 72 -6.9 19.6
06:35 1001 29.56 830 24.51 -2.8 27 75 -6.7 20
06:40 1001 29.56 830 24.51 -3.3 26.1 76 -7 19.4
06:45 1001 29.56 830 24.51 -3.3 26.1 75 -7.1 19.2
06:50 1001 29.56 830 24.51 -3 26.7 73 -7.2 19
06:55 1001 29.56 830 24.51 -2.3 27.9 71 -6.9 19.6
07:00 1001 29.56 831 24.54 -2.1 28.2 71 -6.6 20.1
07:05 1001 29.56 831 24.54 -2.5 27.5 73 -6.7 19.9
07:10 1001 29.56 831 24.54 -2.9 26.9 75 -6.7 19.9
07:15 1001 29.56 831 24.54 -2.6 27.3 74 -6.6 20.1
07:20 1001 29.56 831 24.54 -2.6 27.4 74 -6.6 20.1
07:25 1001 29.56 831 24.54 -2.8 26.9 75 -6.7 20
07:30 1002 29.59 831 24.54 -3 26.7 75 -6.7 19.9
07:35 1002 29.59 831 24.54 -2.7 27.2 73 -7 19.5
07:40 1002 29.59 831 24.54 -2.1 28.2 71 -6.7 19.9
07:45 1002 29.59 831 24.54 -1.8 28.7 70 -6.5 20.2
07:50 1002 29.59 831 24.54 -1.9 28.5 72 -6.4 20.5
07:55 1002 29.59 831 24.54 -1.9 28.7 71 -6.4 20.5
08:00 1002 29.59 831 24.54 -1.8 28.7 72 -6.1 20.9
08:05 1002 29.59 831 24.54 -1.8 28.7 73 -6.1 21
08:10 1002 29.59 831 24.54 -1.8 28.8 72 -6.1 21
08:15 1002 29.59 831 24.54 -1.8 28.8 74 -5.9 21.4
08:20 1002 29.59 831 24.54 -2.1 28.3 74 -6.1 21
08:25 1002 29.59 831 24.54 -2.4 27.8 75 -6.2 20.8
08:30 1002 29.59 831 24.54 -2.3 27.9 74 -6.3 20.7
08:35 1002 29.59 831 24.54 -2 28.3 74 -6.1 21
08:40 1002 29.59 831 24.54 -1.9 28.5 74 -6 21.1
08:45 1002 29.59 831 24.54 -1.7 28.9 71 -6.2 20.8
08:50 1002 29.59 831 24.54 -1.3 29.6 72 -5.8 21.5
08:55 1002 29.59 831 24.54 -1.5 29.2 73 -5.8 21.5
09:00 1002 29.59 832 24.57 -1.2 29.8 75 -5.1 22.7
09:05 1002 29.59 832 24.57 -1.3 29.6 78 -4.6 23.7
09:10 1002 29.59 832 24.57 -1.9 28.7 78 -5.1 22.8
09:15 1003 29.62 832 24.57 -1.8 28.8 78 -5.1 22.9
09:20 1003 29.62 832 24.57 -1.8 28.8 78 -5.2 22.7
09:25 1003 29.62 832 24.57 -1.6 29.1 76 -5.3 22.5
09:30 1003 29.62 832 24.57 -1.2 29.8 78 -4.6 23.7
09:35 1003 29.62 832 24.57 -0.9 30.4 78 -4.2 24.4
09:40 1003 29.62 832 24.57 -0.7 30.7 79 -3.9 25
09:45 1003 29.62 832 24.57 -0.6 30.9 80 -3.6 25.5
09:50 1003 29.62 832 24.57 -0.6 30.9 83 -3.2 26.3
09:55 1003 29.62 832 24.57 -1.1 30.1 86 -3.1 26.5
10:00 1003 29.62 832 24.57 -1.4 29.4 89 -3 26.7
10:05 1003 29.62 832 24.57 -1.7 28.9 92 -2.8 26.9
10:10 1003 29.62 832 24.57 -1.4 29.5 89 -2.9 26.7
10:15 1003 29.62 832 24.57 -1.1 30 89 -2.7 27.2
10:20 1003 29.62 832 24.57 -0.9 30.3 88 -2.7 27.1
10:25 1003 29.62 832 24.57 -0.8 30.6 87 -2.7 27.2
10:30 1003 29.62 832 24.57 -0.7 30.7 88 -2.5 27.5
10:35 1003 29.62 832 24.57 -0.7 30.8 87 -2.6 27.3
10:40 1003 29.62 832 24.57 -0.5 31.1 86 -2.5 27.5
10:45 1003 29.62 832 24.57 -0.5 31.2 87 -2.4 27.6
10:50 1003 29.62 832 24.57 -0.2 31.6 85 -2.5 27.5
10:55 1003 29.62 832 24.57 -0.1 31.8 83 -2.6 27.3
11:00 1003 29.62 832 24.57 0.1 32.2 83 -2.5 27.6
11:05 1003 29.62 832 24.57 0.1 32.1 84 -2.4 27.7
11:10 1003 29.62 832 24.57 -0 31.9 86 -2.1 28.2
11:15 1003 29.62 832 24.57 -0.2 31.7 85 -2.4 27.7
11:20 1003 29.62 832 24.57 -0.2 31.6 83 -2.7 27.1
11:25 1003 29.62 832 24.57 -0.3 31.4 87 -2.3 27.8
11:30 1003 29.62 832 24.57 -0.7 30.8 89 -2.2 28
11:35 1003 29.62 832 24.57 -0.9 30.4 90 -2.4 27.7
11:40 1003 29.62 832 24.57 -1 30.2 93 -2 28.3
11:45 1003 29.62 832 24.57 -0.6 31 89 -2.2 28.1
11:50 1003 29.62 832 24.57 -0.4 31.3 89 -2 28.5
11:55 1003 29.62 832 24.57 -0 31.9 88 -1.8 28.8
12:00 1003 29.62 832 24.57 -0.1 31.8 88 -1.8 28.7
12:05 1003 29.62 832 24.57 -0.3 31.5 88 -2 28.4
12:10 1003 29.62 832 24.57 -0.4 31.2 89 -2 28.4
12:15 1003 29.62 832 24.57 -0.5 31.1 88 -2.2 28
12:20 1003 29.62 832 24.57 -0.2 31.7 88 -2 28.5
12:25 1003 29.62 832 24.57 -0.2 31.6 86 -2.3 27.8
12:30 1002 29.59 832 24.57 -0 31.9 87 -2 28.4
12:35 1002 29.59 832 24.57 -0.1 31.9 87 -1.9 28.5
12:40 1002 29.59 832 24.57 0 32 86 -2 28.4
12:45 1002 29.59 832 24.57 0.1 32.2 87 -1.7 28.9
12:50 1002 29.59 832 24.57 0.3 32.6 85 -1.9 28.6
12:55 1002 29.59 831 24.54 0 32 88 -1.7 28.9
13:00 1002 29.59 831 24.54 0.4 32.8 86 -1.6 29.1
13:05 1002 29.59 831 24.54 0.2 32.4 87 -1.7 29
13:10 1002 29.59 831 24.54 0 32.1 86 -2.1 28.3
13:15 1002 29.59 831 24.54 -0.3 31.5 86 -2.3 27.9
13:20 1002 29.59 831 24.54 -0.1 31.9 84 -2.5 27.5
13:25 1002 29.59 831 24.54 0.1 32.1 83 -2.5 27.6
13:30 1002 29.59 831 24.54 0.3 32.6 79 -2.8 26.9
13:35 1002 29.59 831 24.54 0.2 32.3 79 -3.1 26.4
13:40 1002 29.59 831 24.54 0.2 32.3 78 -3.3 26.1
13:45 1002 29.59 831 24.54 0.5 33 77 -3 26.5
13:50 1002 29.59 831 24.54 0.9 33.6 75 -3.1 26.4
13:55 1002 29.59 831 24.54 0.9 33.7 76 -2.9 26.8
14:00 1002 29.59 831 24.54 0.8 33.5 74 -3.3 26.1
14:05 1002 29.59 831 24.54 0.9 33.6 73 -3.4 25.8
14:10 1002 29.59 831 24.54 1 33.8 74 -3.1 26.5
14:15 1002 29.59 831 24.54 1.1 34 70 -3.7 25.4
14:20 1002 29.59 831 24.54 1.5 34.7 66 -4.1 24.7
14:25 1002 29.59 831 24.54 1.6 34.9 69 -3.5 25.8
14:30 1002 29.59 831 24.54 2.3 36.1 64 -3.8 25.2
14:35 1002 29.59 831 24.54 2.8 37 62 -3.8 25.2
14:40 1002 29.59 831 24.54 2.2 36 65 -3.7 25.4
14:45 1002 29.59 831 24.54 1.8 35.2 66 -3.9 24.9
14:50 1002 29.59 831 24.54 2 35.7 64 -4.1 24.7
14:55 1002 29.59 831 24.54 2.4 36.2 63 -4.1 24.7
15:00 1002 29.59 831 24.54 2.6 36.7 61 -4 24.7
15:05 1002 29.59 831 24.54 2.4 36.3 62 -4.1 24.7
15:10 1002 29.59 831 24.54 3.2 37.7 61 -3.6 25.6
15:15 1002 29.59 831 24.54 3.1 37.6 61 -3.7 25.4
15:20 1002 29.59 831 24.54 3.5 38.3 60 -3.5 25.6
15:25 1002 29.59 831 24.54 2.9 37.3 60 -4 24.8
15:30 1002 29.59 831 24.54 3.6 38.5 59 -3.6 25.6
15:35 1002 29.59 831 24.54 3.9 39.1 57 -3.7 25.3
15:40 1002 29.59 831 24.54 3.8 38.9 53 -4.9 23.2
15:45 1002 29.59 831 24.54 3.7 38.7 56 -4.3 24.2
15:50 1002 29.59 831 24.54 4.1 39.3 54 -4.5 23.9
15:55 1002 29.59 831 24.54 3.8 38.9 57 -4 24.9
16:00 1002 29.59 831 24.54 3.4 38 58 -4.2 24.4
16:05 1002 29.59 831 24.54 3.5 38.4 56 -4.4 24.1
16:10 1002 29.59 831 24.54 4.1 39.5 52 -4.7 23.5
16:15 1002 29.59 831 24.54 4.5 40 51 -4.8 23.3
16:20 1002 29.59 831 24.54 3.7 38.7 54 -4.7 23.5
16:25 1002 29.59 831 24.54 3.4 38.2 54 -5 22.9
16:30 1002 29.59 832 24.57 3.6 38.6 54 -4.8 23.3
16:35 1002 29.59 832 24.57 3.3 37.9 55 -4.9 23.1
16:40 1002 29.59 832 24.57 3.1 37.6 55 -5 23
16:45 1002 29.59 832 24.57 3 37.4 55 -5.1 22.9
16:50 1002 29.59 832 24.57 2.9 37.3 57 -4.8 23.3
16:55 1002 29.59 832 24.57 2.8 37 58 -4.6 23.6
17:00 1002 29.59 832 24.57 2.7 36.9 58 -4.7 23.5
17:05 1002 29.59 832 24.57 2.7 36.8 57 -5 22.9
17:10 1002 29.59 832 24.57 2.7 36.9 57 -5 23.1
17:15 1002 29.59 832 24.57 2.6 36.7 59 -4.7 23.6
17:20 1003 29.62 832 24.57 2.4 36.3 60 -4.6 23.7
17:25 1003 29.62 832 24.57 2.1 35.8 63 -4.2 24.5
17:30 1003 29.62 832 24.57 1.8 35.3 64 -4.2 24.4
17:35 1003 29.62 832 24.57 1.7 35.1 63 -4.6 23.8
17:40 1003 29.62 832 24.57 1.7 35 62 -4.8 23.4
17:45 1003 29.62 832 24.57 1.8 35.3 60 -5.2 22.6
17:50 1003 29.62 832 24.57 1.8 35.3 61 -5 23.1
17:55 1003 29.62 832 24.57 1.7 35 60 -5.2 22.7
18:00 1003 29.62 832 24.57 1.5 34.7 62 -5 23
18:05 1003 29.62 832 24.57 1 33.8 63 -5.2 22.7
18:10 1003 29.62 832 24.57 0.7 33.2 64 -5.3 22.4
18:15 1003 29.62 832 24.57 0.5 32.8 65 -5.4 22.2
18:20 1003 29.62 832 24.57 0.5 32.9 64 -5.6 21.9
18:25 1003 29.62 832 24.57 0.4 32.8 63 -5.8 21.5
18:30 1003 29.62 832 24.57 0.3 32.5 61 -6.3 20.6
18:35 1003 29.62 833 24.6 0.2 32.4 61 -6.4 20.6
18:40 1003 29.62 833 24.6 -0.1 31.8 63 -6.3 20.7
18:45 1003 29.62 833 24.6 -0.3 31.4 64 -6.3 20.6
18:50 1003 29.62 833 24.6 -0.5 31.2 65 -6.3 20.7
18:55 1004 29.65 833 24.6 -0.6 31 64 -6.5 20.3
19:00 1004 29.65 833 24.6 -0.6 30.9 65 -6.4 20.5
19:05 1004 29.65 833 24.6 -1 30.2 67 -6.4 20.4
19:10 1004 29.65 833 24.6 -1.2 29.9 68 -6.4 20.5
19:15 1004 29.65 833 24.6 -1 30.2 67 -6.4 20.4
19:20 1004 29.65 833 24.6 -0.9 30.3 66 -6.5 20.2
19:25 1004 29.65 833 24.6 -0.9 30.4 65 -6.6 20.1
19:30 1004 29.65 833 24.6 -0.9 30.4 65 -6.6 20.1
19:35 1004 29.65 833 24.6 -0.9 30.4 64 -6.8 19.7
19:40 1004 29.65 833 24.6 -0.9 30.3 64 -6.8 19.7
19:45 1004 29.65 833 24.6 -1 30.3 63 -7.2 19
19:50 1004 29.65 833 24.6 -1 30.1 59 -8.1 17.4
19:55 1004 29.65 833 24.6 -1.1 30.1 58 -8.4 16.9
20:00 1004 29.65 834 24.63 -1 30.1 58 -8.3 17
20:05 1004 29.65 834 24.63 -1.2 29.9 57 -8.6 16.5
20:10 1004 29.65 834 24.63 -1.2 29.8 57 -8.8 16.2
20:15 1004 29.65 834 24.63 -1.3 29.7 58 -8.6 16.5
20:20 1004 29.65 834 24.63 -1.4 29.5 58 -8.7 16.4
20:25 1005 29.68 834 24.63 -1.5 29.4 58 -8.7 16.4
20:30 1005 29.68 834 24.63 -1.5 29.3 58 -8.8 16.2
20:35 1005 29.68 834 24.63 -1.5 29.3 58 -8.8 16.2
20:40 1005 29.68 834 24.63 -1.5 29.3 59 -8.6 16.5
20:45 1005 29.68 834 24.63 -1.4 29.4 59 -8.5 16.8
20:50 1005 29.68 834 24.63 -1.4 29.4 60 -8.3 17
20:55 1005 29.68 834 24.63 -1.5 29.4 60 -8.2 17.2
21:00 1005 29.68 834 24.63 -1.6 29.2 61 -8.1 17.4
21:05 1005 29.68 834 24.63 -1.6 29.1 62 -7.9 17.7
21:10 1005 29.68 834 24.63 -1.6 29.1 62 -7.9 17.7
21:15 1005 29.68 834 24.63 -1.7 29 63 -7.9 17.9
21:20 1005 29.68 834 24.63 -1.6 29.1 62 -8 17.6
21:25 1005 29.68 834 24.63 -1.5 29.3 61 -8 17.5
21:30 1005 29.68 834 24.63 -1.5 29.3 62 -7.9 17.8
21:35 1005 29.68 834 24.63 -1.6 29.1 62 -8 17.6
21:40 1005 29.68 835 24.66 -1.8 28.8 62 -8 17.6
21:45 1005 29.68 835 24.66 -1.8 28.7 61 -8.3 17.1
21:50 1005 29.68 835 24.66 -1.7 28.9 61 -8.2 17.2
21:55 1005 29.68 835 24.66 -1.7 28.9 61 -8.3 17.1
22:00 1005 29.68 835 24.66 -1.7 28.9 61 -8.3 17.1
22:05 1005 29.68 835 24.66 -1.6 29.2 61 -8.2 17.3
22:10 1005 29.68 835 24.66 -1.5 29.2 60 -8.3 17.1
22:15 1005 29.68 835 24.66 -1.6 29.2 60 -8.3 17
22:20 1005 29.68 835 24.66 -1.5 29.3 60 -8.2 17.3
22:25 1005 29.68 835 24.66 -1.4 29.4 59 -8.5 16.7
22:30 1006 29.71 835 24.66 -1.4 29.6 58 -8.5 16.7
22:35 1006 29.71 835 24.66 -1.3 29.6 58 -8.5 16.7
22:40 1006 29.71 835 24.66 -1.3 29.7 57 -8.7 16.3
22:45 1006 29.71 835 24.66 -1.3 29.6 57 -8.8 16.2
22:50 1006 29.71 835 24.66 -1.3 29.6 58 -8.6 16.4
22:55 1006 29.71 835 24.66 -1.4 29.5 58 -8.6 16.5
23:00 1006 29.71 835 24.66 -1.4 29.4 60 -8.3 17.1
23:05 1006 29.71 835 24.66 -1.5 29.4 60 -8.3 17.1
23:10 1006 29.71 835 24.66 -1.5 29.4 61 -8.1 17.4
23:15 1006 29.71 835 24.66 -1.5 29.2 61 -8.1 17.4
23:20 1006 29.71 835 24.66 -1.6 29.2 62 -8 17.6
23:25 1006 29.71 835 24.66 -1.6 29.2 61 -8.1 17.5
23:30 1006 29.71 835 24.66 -1.6 29.1 61 -8.1 17.4
23:35 1006 29.71 835 24.66 -1.6 29.1 62 -8 17.5
23:40 1006 29.71 835 24.66 -1.7 29 61 -8.1 17.4
23:45 1006 29.71 835 24.66 -1.7 29 61 -8.1 17.3
23:50 1006 29.71 835 24.66 -1.7 29 61 -8.2 17.3
23:55 1006 29.71 835 24.66 -1.7 28.9 62 -8 17.6
24:00 1006 29.71 835 24.66 -1.8 28.8 63 -7.9 17.7